Time;durP1;ratioP1;P1;durP2;ratioP2;P2;SDS_P1;SDS_P2;PMS_P1;PMS_P2;Temp;Humidity;BMP_temperature;BMP_pressure;BME280_temperature;BME280_humidity;BME280_pressure;Samples;Min_cycle;Max_cycle;Signal;HPM_P1;HPM_P2
2023/04/23 00:00:53;;;;;;;36.87;26.63;;;11.90;99.90;;;;;;5040267;28;20755;-82
2023/04/23 00:03:23;;;;;;;38.07;28.30;;;11.90;99.90;;;;;;5040383;28;21057;-81
2023/04/23 00:05:53;;;;;;;42.93;30.17;;;11.80;99.90;;;;;;5040321;28;20474;-82
2023/04/23 00:08:21;;;;;;;39.90;28.93;;;11.70;99.90;;;;;;5039961;28;20462;-82
2023/04/23 00:10:48;;;;;;;38.17;26.37;;;11.80;99.90;;;;;;5038508;28;21334;-82
2023/04/23 00:13:15;;;;;;;41.67;30.40;;;11.80;99.90;;;;;;5039565;28;20855;-81
2023/04/23 00:15:42;;;;;;;39.50;28.20;;;11.80;99.90;;;;;;5039110;28;20480;-79
2023/04/23 00:18:09;;;;;;;36.20;27.73;;;11.80;99.90;;;;;;5039398;28;20469;-81
2023/04/23 00:20:38;;;;;;;37.70;27.57;;;11.80;99.90;;;;;;5038051;28;20528;-80
2023/04/23 00:23:04;;;;;;;38.47;28.23;;;11.90;99.90;;;;;;5038879;28;20491;-81
2023/04/23 00:25:32;;;;;;;39.90;28.53;;;11.90;99.90;;;;;;5039456;28;20547;-81
2023/04/23 00:27:59;;;;;;;37.80;28.37;;;11.90;99.90;;;;;;5037532;28;20451;-81
2023/04/23 00:30:25;;;;;;;43.17;29.90;;;11.90;99.90;;;;;;5039222;28;20488;-81
2023/04/23 00:32:52;;;;;;;41.73;29.97;;;11.90;99.90;;;;;;5037063;28;20451;-81
2023/04/23 00:35:19;;;;;;;39.70;29.00;;;11.90;99.90;;;;;;5038692;28;20485;-81
2023/04/23 00:37:47;;;;;;;46.97;31.10;;;11.90;99.90;;;;;;5037313;28;20666;-81
2023/04/23 00:40:14;;;;;;;39.53;28.90;;;12.00;99.90;;;;;;5038223;28;20458;-81
2023/04/23 00:42:43;;;;;;;39.10;26.90;;;12.00;99.90;;;;;;5038718;28;20459;-81
2023/04/23 00:45:11;;;;;;;38.93;28.27;;;12.00;99.90;;;;;;5039427;28;20497;-81
2023/04/23 00:47:37;;;;;;;44.37;31.60;;;12.00;99.90;;;;;;5039923;28;20916;-81
2023/04/23 00:50:06;;;;;;;41.87;30.30;;;12.00;99.90;;;;;;5039521;28;20534;-81
2023/04/23 00:52:34;;;;;;;39.90;29.90;;;12.00;99.90;;;;;;5039176;28;20460;-81
2023/04/23 00:55:03;;;;;;;43.03;30.13;;;12.00;99.90;;;;;;5040662;28;20490;-83
2023/04/23 00:57:29;;;;;;;38.00;29.43;;;12.00;99.90;;;;;;5039516;28;20536;-81
2023/04/23 00:59:57;;;;;;;35.70;26.47;;;12.00;99.90;;;;;;5039239;28;20453;-81
2023/04/23 01:02:25;;;;;;;36.03;27.10;;;12.10;99.90;;;;;;5038544;28;20949;-81
2023/04/23 01:04:53;;;;;;;41.20;27.70;;;12.10;99.90;;;;;;5038961;28;20927;-81
2023/04/23 01:07:21;;;;;;;44.00;30.97;;;12.00;99.90;;;;;;5038171;28;20498;-81
2023/04/23 01:09:50;;;;;;;44.73;30.67;;;11.90;99.90;;;;;;5038722;28;20463;-81
2023/04/23 01:12:18;;;;;;;32.77;25.73;;;11.90;99.90;;;;;;5037293;28;20454;-81
2023/04/23 01:14:46;;;;;;;37.40;28.90;;;11.90;99.90;;;;;;5038399;28;20475;-82
2023/04/23 01:17:13;;;;;;;40.17;29.37;;;11.90;99.90;;;;;;5038734;28;20530;-81
2023/04/23 01:19:40;;;;;;;39.43;28.00;;;11.90;99.90;;;;;;5038962;28;20984;-82
2023/04/23 01:22:10;;;;;;;38.97;26.27;;;11.80;99.90;;;;;;5038626;28;20463;-81
2023/04/23 01:24:37;;;;;;;33.23;26.80;;;11.80;99.90;;;;;;5038718;28;20495;-81
2023/04/23 01:27:05;;;;;;;35.20;26.70;;;11.70;99.90;;;;;;5038979;28;20791;-82
2023/04/23 01:29:33;;;;;;;33.37;26.43;;;11.70;99.90;;;;;;5037672;28;20480;-81
2023/04/23 01:32:00;;;;;;;35.53;25.70;;;11.70;99.90;;;;;;5040127;28;20529;-81
2023/04/23 01:34:26;;;;;;;33.93;25.27;;;11.70;99.90;;;;;;5038510;28;20469;-81
2023/04/23 01:36:54;;;;;;;32.27;24.87;;;11.80;99.90;;;;;;5038457;28;20458;-81
2023/04/23 01:39:22;;;;;;;31.50;24.50;;;11.80;99.90;;;;;;5040193;28;20449;-81
2023/04/23 01:41:50;;;;;;;30.13;23.80;;;11.80;99.90;;;;;;5047116;28;20538;-81
2023/04/23 01:44:17;;;;;;;32.60;24.63;;;11.70;99.90;;;;;;5049136;28;20491;-81
2023/04/23 01:46:44;;;;;;;34.30;24.43;;;11.70;99.90;;;;;;5048854;28;20523;-81
2023/04/23 01:49:10;;;;;;;32.97;23.67;;;11.60;99.90;;;;;;5048442;28;20456;-80
2023/04/23 01:51:37;;;;;;;31.83;23.90;;;11.60;99.90;;;;;;5047684;28;20511;-82
2023/04/23 01:54:04;;;;;;;30.30;22.80;;;11.40;99.90;;;;;;5050310;28;20534;-81
2023/04/23 01:56:34;;;;;;;29.60;23.77;;;11.40;99.90;;;;;;5049691;28;20449;-81
2023/04/23 01:59:01;;;;;;;29.97;21.83;;;11.40;99.90;;;;;;5038752;28;20598;-81
2023/04/23 02:01:42;;;;;;;28.00;22.00;;;11.30;99.90;;;;;;5038185;28;20453;-82
2023/04/23 02:04:09;;;;;;;29.20;22.93;;;11.30;99.90;;;;;;5038378;28;20493;-81
2023/04/23 02:06:36;;;;;;;27.70;21.77;;;11.30;99.90;;;;;;5037885;28;20465;-81
2023/04/23 02:09:03;;;;;;;27.70;22.30;;;11.20;99.90;;;;;;5038458;28;20559;-81
2023/04/23 02:11:30;;;;;;;26.33;21.47;;;11.20;99.90;;;;;;5038931;28;20446;-81
2023/04/23 02:13:58;;;;;;;25.93;21.30;;;11.20;99.90;;;;;;5038945;28;21028;-81
2023/04/23 02:16:25;;;;;;;24.90;19.53;;;11.20;99.90;;;;;;5018593;28;20906;-81
2023/04/23 02:18:52;;;;;;;30.53;21.13;;;11.10;99.90;;;;;;5032096;28;20464;-81
2023/04/23 02:21:18;;;;;;;28.40;20.60;;;11.00;99.90;;;;;;5038804;28;20550;-81
2023/04/23 02:23:45;;;;;;;27.20;21.00;;;11.00;99.90;;;;;;5040207;28;20591;-81
2023/04/23 02:26:12;;;;;;;28.03;20.87;;;11.00;99.90;;;;;;5039569;28;20471;-81
2023/04/23 02:28:39;;;;;;;27.80;19.73;;;10.90;99.90;;;;;;5039634;28;20548;-81
2023/04/23 02:31:07;;;;;;;28.70;21.87;;;11.00;99.90;;;;;;5040225;28;20458;-80
2023/04/23 02:33:34;;;;;;;26.87;20.40;;;10.90;99.90;;;;;;5040887;28;20455;-81
2023/04/23 02:36:01;;;;;;;24.57;19.57;;;10.90;99.90;;;;;;5036647;28;20460;-81
2023/04/23 02:38:28;;;;;;;33.27;22.60;;;10.90;99.90;;;;;;5038292;28;20539;-81
2023/04/23 02:40:55;;;;;;;26.07;21.37;;;10.90;99.90;;;;;;5036471;28;20459;-81
2023/04/23 02:43:22;;;;;;;27.40;19.70;;;10.90;99.90;;;;;;5036235;28;20452;-82
2023/04/23 02:45:48;;;;;;;26.00;20.73;;;10.80;99.90;;;;;;5020787;28;20554;-81
2023/04/23 02:48:17;;;;;;;28.40;21.30;;;10.80;99.90;;;;;;5036718;28;20463;-81
2023/04/23 02:50:43;;;;;;;25.70;20.47;;;10.80;99.90;;;;;;5035120;28;20926;-81
2023/04/23 02:53:10;;;;;;;25.60;21.13;;;10.80;99.90;;;;;;5037020;28;20456;-81
2023/04/23 02:55:37;;;;;;;31.20;21.70;;;10.70;99.90;;;;;;5036424;28;20624;-80
2023/04/23 02:58:04;;;;;;;30.60;22.10;;;10.70;99.90;;;;;;5035106;28;20460;-81
2023/04/23 03:00:31;;;;;;;25.93;21.53;;;10.60;99.90;;;;;;5034944;28;20555;-79
2023/04/23 03:02:58;;;;;;;26.50;19.93;;;10.50;99.90;;;;;;5036800;28;20460;-81
2023/04/23 03:05:26;;;;;;;30.13;22.30;;;10.50;99.90;;;;;;5039394;28;20495;-81
2023/04/23 03:07:53;;;;;;;28.57;21.83;;;10.40;99.90;;;;;;5041606;28;20459;-80
2023/04/23 03:10:19;;;;;;;30.43;21.10;;;10.40;99.90;;;;;;5052261;22;20511;-81
2023/04/23 03:12:46;;;;;;;29.27;21.43;;;10.30;99.90;;;;;;5028966;28;20487;-78
2023/04/23 03:15:13;;;;;;;25.70;21.37;;;10.30;99.90;;;;;;5025091;28;20455;-78
2023/04/23 03:17:40;;;;;;;24.37;20.27;;;10.30;99.90;;;;;;5019405;28;20547;-78
2023/04/23 03:20:09;;;;;;;28.77;22.00;;;10.30;99.90;;;;;;5018228;28;20538;-78
2023/04/23 03:22:37;;;;;;;29.67;21.80;;;10.20;99.90;;;;;;5017733;28;20467;-78
2023/04/23 03:25:05;;;;;;;25.10;20.20;;;10.30;99.90;;;;;;5019937;28;20489;-78
2023/04/23 03:27:32;;;;;;;29.50;21.47;;;10.40;99.90;;;;;;5019970;28;20480;-78
2023/04/23 03:29:59;;;;;;;32.40;21.60;;;10.50;99.90;;;;;;5019719;28;20550;-78
2023/04/23 03:32:26;;;;;;;26.67;20.20;;;10.50;99.90;;;;;;5018263;28;20459;-77
2023/04/23 03:34:53;;;;;;;28.87;20.83;;;10.60;99.90;;;;;;5019567;28;20695;-79
2023/04/23 03:37:19;;;;;;;29.33;22.33;;;10.60;99.90;;;;;;5019255;28;20463;-78
2023/04/23 03:39:48;;;;;;;30.30;21.40;;;10.50;99.90;;;;;;5018642;28;20827;-78
2023/04/23 03:42:15;;;;;;;23.73;20.17;;;10.40;99.90;;;;;;5018650;28;20456;-80
2023/04/23 03:44:41;;;;;;;30.43;22.10;;;10.40;99.90;;;;;;5019317;28;20895;-79
2023/04/23 03:47:08;;;;;;;25.33;20.33;;;10.30;99.90;;;;;;5019483;28;20463;-80
2023/04/23 03:49:35;;;;;;;26.93;21.20;;;10.20;99.90;;;;;;5018492;28;20523;-79
2023/04/23 03:52:03;;;;;;;26.97;21.03;;;10.20;99.90;;;;;;5017763;28;20464;-79
2023/04/23 03:54:29;;;;;;;27.77;22.07;;;10.20;99.90;;;;;;5018499;28;20489;-79
2023/04/23 03:56:58;;;;;;;27.40;21.17;;;10.20;99.90;;;;;;5018757;28;20518;-79
2023/04/23 03:59:24;;;;;;;28.93;21.83;;;10.30;99.90;;;;;;5017431;28;20456;-79
2023/04/23 04:01:51;;;;;;;28.93;21.63;;;10.30;99.90;;;;;;5017125;28;20481;-79
2023/04/23 04:04:18;;;;;;;24.00;19.63;;;10.40;99.90;;;;;;5017870;28;20488;-79
2023/04/23 04:06:45;;;;;;;26.37;19.90;;;10.40;99.90;;;;;;5017528;28;20458;-80
2023/04/23 04:09:12;;;;;;;29.97;20.40;;;10.40;99.90;;;;;;5017642;28;20445;-79
2023/04/23 04:11:39;;;;;;;28.43;22.03;;;10.50;99.90;;;;;;5016668;28;20572;-79
2023/04/23 04:14:08;;;;;;;25.23;19.40;;;10.50;99.90;;;;;;5018034;28;20506;-80
2023/04/23 04:16:34;;;;;;;25.63;20.90;;;10.60;99.90;;;;;;5017588;28;21060;-80
2023/04/23 04:19:01;;;;;;;26.13;18.97;;;10.70;99.90;;;;;;5017767;28;20482;-79
2023/04/23 04:21:28;;;;;;;25.33;19.00;;;10.70;99.90;;;;;;5016297;28;20993;-80
2023/04/23 04:23:56;;;;;;;24.13;19.27;;;10.70;99.90;;;;;;5016852;28;20457;-80
2023/04/23 04:26:23;;;;;;;24.13;20.50;;;10.70;99.90;;;;;;5016067;28;20458;-79
2023/04/23 04:28:50;;;;;;;21.40;17.93;;;10.70;99.90;;;;;;5016476;28;20962;-78
2023/04/23 04:31:19;;;;;;;22.37;18.23;;;10.70;99.90;;;;;;5013160;28;20477;-80
2023/04/23 04:33:46;;;;;;;28.60;22.20;;;10.70;99.90;;;;;;5023163;28;20464;-79
2023/04/23 04:36:13;;;;;;;24.27;19.00;;;10.60;99.90;;;;;;5024181;28;20457;-78
2023/04/23 04:38:40;;;;;;;27.00;20.57;;;10.50;99.90;;;;;;5022394;28;20483;-80
2023/04/23 04:41:07;;;;;;;24.13;19.20;;;10.50;99.90;;;;;;5022462;28;20479;-80
2023/04/23 04:43:34;;;;;;;25.67;19.67;;;10.50;99.90;;;;;;5022133;28;20450;-79
2023/04/23 04:46:01;;;;;;;21.33;17.67;;;10.50;99.90;;;;;;5020370;28;20575;-79
2023/04/23 04:48:29;;;;;;;21.60;17.37;;;10.40;99.90;;;;;;5018840;28;20457;-80
2023/04/23 04:50:56;;;;;;;24.00;19.83;;;10.40;99.90;;;;;;5018432;28;20507;-80
2023/04/23 04:53:23;;;;;;;23.97;18.17;;;10.30;99.90;;;;;;5018554;28;20457;-81
2023/04/23 04:55:50;;;;;;;23.67;18.70;;;10.30;99.90;;;;;;5018071;28;20476;-78
2023/04/23 04:58:17;;;;;;;24.23;20.70;;;10.30;99.90;;;;;;5018358;28;20464;-80
2023/04/23 05:00:45;;;;;;;23.37;18.93;;;10.30;99.90;;;;;;5018173;28;20482;-78
2023/04/23 05:03:12;;;;;;;25.43;18.20;;;10.30;99.90;;;;;;5018412;28;20514;-79
2023/04/23 05:05:40;;;;;;;25.23;17.60;;;10.20;99.90;;;;;;5016626;28;20477;-79
2023/04/23 05:08:07;;;;;;;23.97;18.83;;;10.20;99.90;;;;;;5013986;28;20450;-78
2023/04/23 05:10:34;;;;;;;21.90;17.63;;;10.20;99.90;;;;;;5015807;28;20517;-79
2023/04/23 05:13:01;;;;;;;20.10;17.47;;;10.20;99.90;;;;;;5016032;28;20462;-78
2023/04/23 05:15:28;;;;;;;23.80;19.50;;;10.20;99.90;;;;;;5016381;28;20454;-78
2023/04/23 05:17:55;;;;;;;19.80;16.43;;;10.20;99.90;;;;;;5016292;28;20461;-78
2023/04/23 05:20:22;;;;;;;22.40;17.47;;;10.20;99.90;;;;;;5015547;28;20543;-78
2023/04/23 05:22:51;;;;;;;22.03;17.20;;;10.20;99.90;;;;;;5014754;28;20461;-78
2023/04/23 05:25:17;;;;;;;20.67;17.20;;;10.20;99.90;;;;;;5016350;28;20581;-78
2023/04/23 05:27:44;;;;;;;25.33;18.57;;;10.20;99.90;;;;;;5017955;28;20457;-79
2023/04/23 05:30:11;;;;;;;25.10;17.57;;;10.30;99.90;;;;;;5018145;28;20477;-80
2023/04/23 05:32:38;;;;;;;20.10;17.80;;;10.50;99.90;;;;;;5018047;28;20462;-79
2023/04/23 05:35:06;;;;;;;22.13;17.67;;;10.70;99.90;;;;;;5019340;28;20544;-80
2023/04/23 05:37:33;;;;;;;19.13;15.93;;;10.80;99.90;;;;;;5016574;28;20462;-78
2023/04/23 05:40:06;;;;;;;19.23;15.93;;;10.80;99.90;;;;;;5016404;28;20561;-78
2023/04/23 05:42:32;;;;;;;22.33;17.33;;;10.90;99.90;;;;;;5016886;28;21029;-78
2023/04/23 05:44:59;;;;;;;17.70;14.60;;;11.10;99.90;;;;;;5017296;28;20485;-80
2023/04/23 05:47:26;;;;;;;18.70;16.60;;;11.20;99.90;;;;;;5016481;28;20446;-79
2023/04/23 05:49:53;;;;;;;17.77;14.87;;;11.30;99.90;;;;;;5016095;28;21017;-77
2023/04/23 05:52:20;;;;;;;17.67;15.20;;;11.50;99.90;;;;;;5014379;28;20529;-78
2023/04/23 05:54:46;;;;;;;16.63;14.00;;;11.90;99.90;;;;;;5015903;28;20446;-78
2023/04/23 05:57:15;;;;;;;15.97;12.17;;;12.20;99.90;;;;;;5013187;28;20899;-77
2023/04/23 05:59:42;;;;;;;16.03;14.03;;;12.40;99.90;;;;;;5013086;28;20451;-78
2023/04/23 06:02:10;;;;;;;14.13;12.73;;;12.70;99.90;;;;;;5012780;28;20828;-77
2023/04/23 06:04:37;;;;;;;14.50;11.03;;;13.00;99.90;;;;;;5013618;28;20481;-76
2023/04/23 06:07:04;;;;;;;12.97;10.93;;;13.30;68.70;;;;;;5013318;28;20459;-78
2023/04/23 06:09:31;;;;;;;11.00;9.93;;;13.30;57.60;;;;;;5013203;28;20482;-77
2023/04/23 06:11:58;;;;;;;11.83;10.67;;;13.50;91.70;;;;;;5012389;28;20489;-76
2023/04/23 06:14:26;;;;;;;11.50;9.83;;;13.50;65.20;;;;;;5015769;28;20454;-77
2023/04/23 06:16:53;;;;;;;13.83;9.77;;;13.70;99.90;;;;;;5014192;28;20496;-78
2023/04/23 06:19:19;;;;;;;12.53;9.67;;;13.80;13.50;;;;;;5014369;28;20465;-78
2023/04/23 06:21:46;;;;;;;12.90;8.97;;;13.90;19.80;;;;;;5013932;28;20477;-78
2023/04/23 06:24:13;;;;;;;11.00;9.50;;;13.90;1.00;;;;;;5014313;28;20673;-79
2023/04/23 06:26:40;;;;;;;12.20;9.33;;;13.90;1.00;;;;;;5013323;28;20531;-77
2023/04/23 06:29:07;;;;;;;13.20;9.10;;;14.00;1.00;;;;;;5013910;28;20458;-78
2023/04/23 06:31:35;;;;;;;9.70;7.53;;;14.00;1.00;;;;;;5012132;28;20479;-78
2023/04/23 06:34:02;;;;;;;10.53;8.90;;;14.10;1.00;;;;;;5013704;28;20457;-78
2023/04/23 06:36:29;;;;;;;9.10;8.20;;;14.20;1.00;;;;;;5012298;28;20525;-79
2023/04/23 06:38:56;;;;;;;9.13;8.20;;;14.30;1.00;;;;;;5012983;28;20471;-78
2023/04/23 06:41:23;;;;;;;10.13;8.93;;;14.40;1.00;;;;;;5012669;28;20462;-78
2023/04/23 06:43:50;;;;;;;9.20;8.27;;;14.40;1.00;;;;;;5013314;28;21309;-78
2023/04/23 06:46:16;;;;;;;8.60;7.80;;;14.40;1.00;;;;;;5012227;28;20545;-78
2023/04/23 06:48:45;;;;;;;9.70;7.20;;;14.40;1.00;;;;;;5012837;28;20461;-78
2023/04/23 06:51:12;;;;;;;9.30;8.40;;;14.40;1.00;;;;;;5012653;28;20477;-78
2023/04/23 06:53:39;;;;;;;9.10;8.13;;;14.40;1.00;;;;;;5013069;28;20454;-76
2023/04/23 06:56:06;;;;;;;8.90;7.97;;;14.40;1.00;;;;;;5013208;28;20525;-78
2023/04/23 06:58:33;;;;;;;9.63;7.70;;;14.30;1.00;;;;;;5013157;28;20547;-78
2023/04/23 07:01:03;;;;;;;8.17;7.37;;;14.60;1.00;;;;;;5013381;28;20482;-80
2023/04/23 07:03:30;;;;;;;8.60;7.70;;;14.80;1.00;;;;;;5013000;28;20449;-79
2023/04/23 07:05:58;;;;;;;8.70;6.80;;;15.10;1.00;;;;;;5013888;28;20479;-77
2023/04/23 07:08:25;;;;;;;8.70;6.43;;;15.40;1.00;;;;;;5008193;28;20453;-77
2023/04/23 07:10:52;;;;;;;8.43;7.50;;;15.50;99.90;;;;;;5012292;28;20489;-78
2023/04/23 07:13:19;;;;;;;6.90;6.20;;;15.50;1.00;;;;;;5013121;28;20453;-78
2023/04/23 07:15:47;;;;;;;12.17;8.10;;;15.60;1.00;;;;;;5013998;28;20456;-78
2023/04/23 07:18:14;;;;;;;6.80;6.20;;;15.70;99.90;;;;;;5015017;28;20456;-78
2023/04/23 07:20:41;;;;;;;7.53;6.73;;;16.00;99.90;;;;;;5012336;28;20585;-78
2023/04/23 07:23:09;;;;;;;6.50;5.90;;;16.20;99.90;;;;;;5013536;28;20547;-79
2023/04/23 07:25:36;;;;;;;6.00;5.40;;;16.00;99.90;;;;;;5013276;28;20479;-77
2023/04/23 07:28:03;;;;;;;6.93;6.27;;;15.90;99.90;;;;;;5013025;28;20465;-78
2023/04/23 07:30:31;;;;;;;7.63;6.23;;;15.80;99.90;;;;;;5013671;28;20485;-76
2023/04/23 07:32:58;;;;;;;7.03;5.70;;;15.80;99.90;;;;;;5013700;28;20448;-78
2023/04/23 07:35:25;;;;;;;7.27;6.10;;;15.80;99.90;;;;;;5013319;28;20450;-78
2023/04/23 07:37:52;;;;;;;6.10;5.50;;;15.70;99.90;;;;;;5014371;28;20843;-79
2023/04/23 07:40:22;;;;;;;6.00;5.40;;;15.60;99.90;;;;;;5016007;28;20477;-77
2023/04/23 07:42:49;;;;;;;8.37;6.50;;;15.40;99.90;;;;;;5015813;28;20930;-78
2023/04/23 07:45:16;;;;;;;8.30;5.60;;;15.20;99.90;;;;;;5017179;28;20494;-77
2023/04/23 07:47:44;;;;;;;5.93;4.70;;;15.10;1.00;;;;;;5017899;28;20968;-78
2023/04/23 07:50:12;;;;;;;8.60;5.00;;;15.20;1.00;;;;;;5019010;28;20478;-78
2023/04/23 07:52:39;;;;;;;6.20;5.20;;;15.40;1.00;;;;;;5015599;28;20548;-78
2023/04/23 07:55:07;;;;;;;6.10;5.33;;;15.40;1.00;;;;;;5017358;28;20496;-77
2023/04/23 07:57:35;;;;;;;6.23;4.83;;;15.70;1.00;;;;;;5017501;28;20464;-78
2023/04/23 08:00:02;;;;;;;7.90;4.37;;;15.50;99.90;;;;;;5015317;28;20505;-77
2023/04/23 08:02:29;;;;;;;5.40;4.43;;;15.60;99.90;;;;;;5014350;28;20456;-78
2023/04/23 08:04:55;;;;;;;7.17;4.67;;;15.70;99.90;;;;;;5015715;28;20567;-78
2023/04/23 08:07:22;;;;;;;5.27;4.33;;;16.00;99.90;;;;;;5017265;28;22282;-79
2023/04/23 08:09:49;;;;;;;10.47;4.80;;;16.20;23.30;;;;;;5017385;28;20487;-76
2023/04/23 08:12:16;;;;;;;7.27;4.40;;;16.40;99.90;;;;;;5013602;28;20445;-78
2023/04/23 08:14:46;;;;;;;6.53;5.20;;;16.50;99.90;;;;;;5014725;28;20471;-77
2023/04/23 08:17:12;;;;;;;7.80;4.60;;;16.60;1.00;;;;;;5015224;28;20832;-78
2023/04/23 08:19:39;;;;;;;5.53;3.90;;;16.80;99.90;;;;;;5015315;28;20452;-77
2023/04/23 08:22:06;;;;;;;6.43;4.77;;;17.30;95.40;;;;;;5014131;28;20507;-78
2023/04/23 08:24:33;;;;;;;10.77;6.70;;;18.00;99.90;;;;;;5015832;28;20450;-77
2023/04/23 08:27:00;;;;;;;3.73;2.90;;;19.00;99.90;;;;;;5015921;28;20873;-77
2023/04/23 08:29:27;;;;;;;7.53;3.40;;;20.90;78.70;;;;;;5016586;28;20464;-77
2023/04/23 08:31:55;;;;;;;4.97;2.93;;;22.30;1.00;;;;;;5014379;28;20474;-77
2023/04/23 08:34:22;;;;;;;5.47;3.00;;;22.80;1.00;;;;;;5015586;28;20456;-78
2023/04/23 08:36:49;;;;;;;3.67;2.10;;;24.00;1.00;;;;;;5014535;28;20557;-76
2023/04/23 08:39:16;;;;;;;7.93;3.30;;;23.60;1.00;;;;;;5015478;28;20970;-78
2023/04/23 08:41:44;;;;;;;3.60;2.37;;;22.70;1.00;;;;;;5013897;28;20476;-78
2023/04/23 08:44:17;;;;;;;4.33;2.63;;;22.70;1.00;;;;;;5015486;28;20452;-77
2023/04/23 08:46:44;;;;;;;6.60;2.57;;;23.90;1.00;;;;;;5015214;28;20497;-77
2023/04/23 08:49:16;;;;;;;4.37;2.23;;;23.00;1.00;;;;;;5014664;28;20839;-78
2023/04/23 08:51:48;;;;;;;5.27;2.73;;;23.30;1.00;;;;;;5014836;28;20469;-78
2023/04/23 08:54:18;;;;;;;2.93;1.90;;;23.10;1.00;;;;;;5013270;28;20961;-77
2023/04/23 08:56:46;;;;;;;7.23;3.90;;;23.20;1.00;;;;;;5015017;28;20849;-78
2023/04/23 08:59:13;;;;;;;4.63;2.80;;;23.40;99.90;;;;;;5013387;28;20446;-78
2023/04/23 09:01:41;;;;;;;4.40;2.50;;;24.40;1.00;;;;;;5011816;28;20846;-78
2023/04/23 09:04:10;;;;;;;5.03;2.50;;;25.60;1.00;;;;;;5013799;28;20441;-80
2023/04/23 09:06:38;;;;;;;4.90;2.53;;;26.10;99.90;;;;;;5014569;28;20482;-78
2023/04/23 09:09:07;;;;;;;4.27;2.47;;;24.60;99.90;;;;;;5014512;28;20449;-77
2023/04/23 09:11:36;;;;;;;4.17;2.20;;;25.50;99.90;;;;;;5039108;22;20496;-85
2023/04/23 09:14:04;;;;;;;5.80;2.80;;;24.60;99.90;;;;;;5037236;28;20604;-83
2023/04/23 09:16:31;;;;;;;4.57;2.70;;;23.60;99.90;;;;;;5039245;28;20532;-84
2023/04/23 09:18:59;;;;;;;6.27;2.83;;;23.00;99.90;;;;;;5027700;28;20452;-84
2023/04/23 09:21:26;;;;;;;4.33;2.23;;;23.70;99.90;;;;;;5027336;28;20567;-84
2023/04/23 09:23:54;;;;;;;3.00;2.20;;;23.60;99.90;;;;;;5037341;28;20941;-84
2023/04/23 09:26:21;;;;;;;8.13;2.50;;;23.00;99.90;;;;;;5037053;28;20489;-84
2023/04/23 09:28:50;;;;;;;4.20;2.27;;;22.10;99.90;;;;;;5039153;28;21170;-83
2023/04/23 09:31:21;;;;;;;4.30;2.67;;;21.10;99.90;;;;;;5035175;28;20519;-84
2023/04/23 09:33:52;;;;;;;4.17;2.30;;;21.00;99.90;;;;;;5036063;28;20457;-83
2023/04/23 09:36:22;;;;;;;4.43;2.60;;;20.60;99.90;;;;;;5038276;28;20967;-84
2023/04/23 09:38:49;;;;;;;3.77;1.83;;;20.90;99.90;;;;;;5033138;28;20465;-84
2023/04/23 09:41:25;;;;;;;4.43;3.70;;;22.80;1.00;;;;;;5035820;28;20843;-84
2023/04/23 09:43:55;;;;;;;3.70;2.10;;;23.70;99.90;;;;;;5037126;28;20467;-82
2023/04/23 09:46:35;;;;;;;4.57;2.40;;;24.10;99.90;;;;;;5036026;28;20480;-83
2023/04/23 09:49:04;;;;;;;16.90;15.03;;;23.10;99.90;;;;;;5034259;28;20448;-82
2023/04/23 09:51:31;;;;;;;7.83;6.90;;;22.50;99.90;;;;;;5034322;28;20907;-83
2023/04/23 09:54:01;;;;;;;9.73;4.57;;;22.10;99.90;;;;;;5032506;28;20461;-82
2023/04/23 09:56:30;;;;;;;7.67;3.67;;;21.30;99.90;;;;;;5035023;28;20839;-84
2023/04/23 09:58:57;;;;;;;4.80;1.97;;;20.80;99.90;;;;;;5036608;28;20910;-83
2023/04/23 10:01:28;;;;;;;4.80;2.20;;;20.60;99.90;;;;;;5035431;28;20475;-82
2023/04/23 10:03:56;;;;;;;4.53;2.00;;;20.50;99.90;;;;;;5035607;28;20464;-82
2023/04/23 10:06:30;;;;;;;5.03;2.47;;;20.00;99.90;;;;;;5016838;28;20489;-82
2023/04/23 10:08:57;;;;;;;4.30;2.20;;;19.80;1.00;;;;;;5031277;28;20989;-84
2023/04/23 10:11:25;;;;;;;4.33;1.90;;;19.80;1.00;;;;;;5051660;28;20480;-81
2023/04/23 10:13:54;;;;;;;5.53;2.43;;;20.30;1.00;;;;;;5034630;28;20458;-84
2023/04/23 10:16:23;;;;;;;10.30;9.20;;;19.90;1.00;;;;;;5033145;28;20944;-83
2023/04/23 10:18:51;;;;;;;4.50;2.60;;;20.30;1.00;;;;;;5034672;28;21007;-81
2023/04/23 10:21:20;;;;;;;4.80;2.80;;;20.00;1.00;;;;;;5034557;28;20472;-81
2023/04/23 10:23:49;;;;;;;9.37;8.20;;;19.90;1.00;;;;;;5035991;28;21180;-83
2023/04/23 10:26:18;;;;;;;6.37;3.57;;;20.30;1.00;;;;;;5037733;28;20485;-82
2023/04/23 10:28:48;;;;;;;29.17;25.90;;;20.60;1.00;;;;;;5037001;28;20453;-82
2023/04/23 10:31:19;;;;;;;13.60;11.50;;;20.50;1.00;;;;;;5040297;28;20473;-82
2023/04/23 10:33:49;;;;;;;7.83;5.13;;;20.60;1.00;;;;;;5036402;28;20451;-81
2023/04/23 10:36:17;;;;;;;5.07;3.07;;;20.30;1.00;;;;;;5048704;28;20452;-84
2023/04/23 10:38:45;;;;;;;7.70;3.33;;;20.30;1.00;;;;;;5037777;28;20456;-83
2023/04/23 10:41:16;;;;;;;4.90;3.03;;;21.00;1.00;;;;;;5039967;28;20576;-81
2023/04/23 10:43:43;;;;;;;5.33;2.60;;;21.50;1.00;;;;;;5041905;28;20451;-84
2023/04/23 10:46:29;;;;;;;6.47;5.20;;;22.20;1.00;;;;;;5037743;28;20627;-84
2023/04/23 10:49:13;;;;;;;4.10;2.67;;;22.70;99.90;;;;;;5033624;28;20514;-84
2023/04/23 10:51:41;;;;;;;25.53;22.90;;;22.80;99.90;;;;;;5036446;28;20468;-81
2023/04/23 10:54:10;;;;;;;7.63;5.57;;;23.00;99.90;;;;;;5035808;28;20492;-83
2023/04/23 10:56:38;;;;;;;3.47;1.83;;;23.50;99.90;;;;;;5036046;28;20453;-83
2023/04/23 10:59:07;;;;;;;3.57;1.80;;;23.70;99.90;;;;;;5033933;28;20452;-84
2023/04/23 11:01:35;;;;;;;3.50;1.60;;;24.70;99.90;;;;;;5029000;28;20476;-81
2023/04/23 11:04:21;;;;;;;3.97;2.40;;;24.60;99.90;;;;;;5034300;28;20471;-83
2023/04/23 11:06:55;;;;;;;8.40;7.17;;;24.60;99.90;;;;;;5025612;28;21004;-82
2023/04/23 11:09:29;;;;;;;2.60;1.90;;;24.50;99.90;;;;;;5031917;28;20448;-83
2023/04/23 11:11:57;;;;;;;2.57;1.70;;;23.90;99.90;;;;;;5033944;28;21058;-84
2023/04/23 11:14:34;;;;;;;4.57;3.60;;;23.70;99.90;;;;;;5036163;28;21000;-82
2023/04/23 11:17:03;;;;;;;2.97;1.87;;;22.90;99.90;;;;;;5031947;28;20944;-81
2023/04/23 11:19:30;;;;;;;4.67;1.60;;;22.60;99.90;;;;;;5031263;28;21104;-84
2023/04/23 11:22:02;;;;;;;2.93;1.70;;;22.40;99.90;;;;;;5032171;28;20476;-82
2023/04/23 11:24:33;;;;;;;4.50;2.43;;;21.80;99.90;;;;;;5035206;28;20463;-82
2023/04/23 11:27:01;;;;;;;2.30;1.60;;;21.10;99.90;;;;;;5040538;28;20468;-82
2023/04/23 11:29:29;;;;;;;3.70;1.60;;;20.80;99.90;;;;;;5031007;28;20449;-82
2023/04/23 11:31:56;;;;;;;5.83;1.40;;;20.40;99.90;;;;;;5038287;28;21201;-82
2023/04/23 11:34:25;;;;;;;3.53;1.53;;;19.80;99.90;;;;;;5043434;28;20828;-80
2023/04/23 11:36:53;;;;;;;3.50;1.50;;;20.30;99.90;;;;;;5054182;28;20447;-83
2023/04/23 11:39:21;;;;;;;3.13;2.23;;;20.90;99.90;;;;;;5050725;28;20453;-83
2023/04/23 11:41:48;;;;;;;2.53;1.60;;;21.40;99.90;;;;;;5052456;28;20478;-84
2023/04/23 11:44:15;;;;;;;4.90;2.60;;;21.70;99.90;;;;;;5050658;28;21008;-82
2023/04/23 11:46:42;;;;;;;3.20;2.60;;;22.20;99.90;;;;;;5033783;28;20480;-84
2023/04/23 11:49:10;;;;;;;2.40;1.33;;;22.10;99.90;;;;;;5043451;28;20490;-85
2023/04/23 11:51:43;;;;;;;5.23;1.50;;;21.60;99.90;;;;;;5033957;28;20534;-85
2023/04/23 11:54:10;;;;;;;2.30;1.30;;;21.10;99.90;;;;;;5041047;28;20452;-84
2023/04/23 11:56:38;;;;;;;2.07;1.00;;;21.20;99.90;;;;;;5044993;28;20453;-82
2023/04/23 11:59:05;;;;;;;2.07;1.57;;;22.20;99.90;;;;;;5038766;28;21106;-84
2023/04/23 12:01:46;;;;;;;1.90;1.00;;;22.20;99.90;;;;;;5037152;28;20478;-84
2023/04/23 12:04:14;;;;;;;3.73;1.30;;;22.40;99.90;;;;;;5034806;28;20449;-84
2023/04/23 12:06:44;;;;;;;2.73;1.20;;;22.20;99.90;;;;;;5041473;28;20548;-84
2023/04/23 12:09:12;;;;;;;2.50;1.00;;;21.90;99.90;;;;;;5036983;28;20530;-84
2023/04/23 12:11:39;;;;;;;1.83;1.10;;;21.90;99.90;;;;;;5040739;28;20903;-84
2023/04/23 12:14:07;;;;;;;3.70;1.50;;;21.30;99.90;;;;;;5041143;28;20527;-84
2023/04/23 12:16:38;;;;;;;4.47;1.37;;;21.10;99.90;;;;;;5041030;28;20510;-84
2023/04/23 12:19:08;;;;;;;3.40;1.37;;;21.00;99.90;;;;;;5041341;28;20539;-84
2023/04/23 12:21:35;;;;;;;3.20;1.70;;;21.10;99.90;;;;;;5034330;28;20483;-84
2023/04/23 12:24:05;;;;;;;2.57;1.40;;;21.40;99.90;;;;;;5040712;28;20461;-84
2023/04/23 12:26:32;;;;;;;3.30;1.50;;;21.30;99.90;;;;;;5034654;28;21254;-84
2023/04/23 12:29:00;;;;;;;2.13;1.13;;;21.60;99.90;;;;;;5027952;28;20473;-83
2023/04/23 12:31:29;;;;;;;2.93;1.40;;;22.90;99.90;;;;;;5051234;28;21739;-83
2023/04/23 12:34:02;;;;;;;2.63;1.30;;;25.40;99.90;;;;;;5038177;28;20826;-84
2023/04/23 12:36:30;;;;;;;2.83;1.10;;;27.10;99.90;;;;;;5043203;28;20544;-83
2023/04/23 12:39:35;;;;;;;2.83;1.87;;;29.00;99.90;;;;;;5037817;28;20449;-85
2023/04/23 12:42:05;;;;;;;3.83;1.30;;;29.10;99.90;;;;;;5040295;28;20848;-84